sensor_id;sensor_type;location;lat;lon;timestamp;temperature;humidity
4107;DHT22;21906;50.812;7.132;2024-03-08T00:00:53;6.40;58.50
4107;DHT22;21906;50.812;7.132;2024-03-08T00:03:18;6.30;58.80
4107;DHT22;21906;50.812;7.132;2024-03-08T00:05:44;6.30;58.80
4107;DHT22;21906;50.812;7.132;2024-03-08T00:08:10;6.20;58.60
4107;DHT22;21906;50.812;7.132;2024-03-08T00:10:35;6.10;59.10
4107;DHT22;21906;50.812;7.132;2024-03-08T00:13:01;6.20;59.10
4107;DHT22;21906;50.812;7.132;2024-03-08T00:15:29;6.00;59.20
4107;DHT22;21906;50.812;7.132;2024-03-08T00:17:57;6.20;59.10
4107;DHT22;21906;50.812;7.132;2024-03-08T00:20:26;6.30;58.90
4107;DHT22;21906;50.812;7.132;2024-03-08T00:22:52;6.30;58.70
4107;DHT22;21906;50.812;7.132;2024-03-08T00:25:17;6.40;58.60
4107;DHT22;21906;50.812;7.132;2024-03-08T00:27:44;6.30;58.40
4107;DHT22;21906;50.812;7.132;2024-03-08T00:30:10;6.20;58.50
4107;DHT22;21906;50.812;7.132;2024-03-08T00:32:38;6.10;58.80
4107;DHT22;21906;50.812;7.132;2024-03-08T00:35:04;6.20;58.80
4107;DHT22;21906;50.812;7.132;2024-03-08T00:37:32;6.20;58.70
4107;DHT22;21906;50.812;7.132;2024-03-08T00:39:59;6.20;58.60
4107;DHT22;21906;50.812;7.132;2024-03-08T00:42:25;6.30;58.30
4107;DHT22;21906;50.812;7.132;2024-03-08T00:44:51;6.20;58.70
4107;DHT22;21906;50.812;7.132;2024-03-08T00:47:17;6.20;58.60
4107;DHT22;21906;50.812;7.132;2024-03-08T00:49:43;6.30;58.30
4107;DHT22;21906;50.812;7.132;2024-03-08T00:52:08;6.30;58.30
4107;DHT22;21906;50.812;7.132;2024-03-08T00:54:35;6.30;58.30
4107;DHT22;21906;50.812;7.132;2024-03-08T00:57:04;6.30;58.40
4107;DHT22;21906;50.812;7.132;2024-03-08T00:59:30;6.20;58.40
4107;DHT22;21906;50.812;7.132;2024-03-08T01:02:00;6.20;58.70
4107;DHT22;21906;50.812;7.132;2024-03-08T01:04:26;6.20;58.70
4107;DHT22;21906;50.812;7.132;2024-03-08T01:06:57;6.10;58.70
4107;DHT22;21906;50.812;7.132;2024-03-08T01:09:23;6.10;58.70
4107;DHT22;21906;50.812;7.132;2024-03-08T01:11:49;5.90;59.10
4107;DHT22;21906;50.812;7.132;2024-03-08T01:14:15;5.90;59.30
4107;DHT22;21906;50.812;7.132;2024-03-08T01:16:41;6.00;59.10
4107;DHT22;21906;50.812;7.132;2024-03-08T01:19:07;6.00;59.10
4107;DHT22;21906;50.812;7.132;2024-03-08T01:21:32;6.00;59.20
4107;DHT22;21906;50.812;7.132;2024-03-08T01:23:58;6.00;59.00
4107;DHT22;21906;50.812;7.132;2024-03-08T01:26:24;6.00;59.30
4107;DHT22;21906;50.812;7.132;2024-03-08T01:28:50;5.90;59.10
4107;DHT22;21906;50.812;7.132;2024-03-08T01:31:15;5.80;59.70
4107;DHT22;21906;50.812;7.132;2024-03-08T01:33:41;5.90;59.80
4107;DHT22;21906;50.812;7.132;2024-03-08T01:36:07;5.80;60.10
4107;DHT22;21906;50.812;7.132;2024-03-08T01:38:33;5.80;60.00
4107;DHT22;21906;50.812;7.132;2024-03-08T01:41:02;5.70;60.30
4107;DHT22;21906;50.812;7.132;2024-03-08T01:43:29;5.70;60.10
4107;DHT22;21906;50.812;7.132;2024-03-08T01:45:58;5.80;60.10
4107;DHT22;21906;50.812;7.132;2024-03-08T01:48:30;5.80;59.90
4107;DHT22;21906;50.812;7.132;2024-03-08T01:50:59;5.80;60.10
4107;DHT22;21906;50.812;7.132;2024-03-08T01:53:26;5.80;60.20
4107;DHT22;21906;50.812;7.132;2024-03-08T01:55:55;5.90;60.10
4107;DHT22;21906;50.812;7.132;2024-03-08T01:58:22;5.90;59.90
4107;DHT22;21906;50.812;7.132;2024-03-08T02:00:49;5.90;59.50
4107;DHT22;21906;50.812;7.132;2024-03-08T02:03:18;6.00;59.50
4107;DHT22;21906;50.812;7.132;2024-03-08T02:05:43;6.00;59.30
4107;DHT22;21906;50.812;7.132;2024-03-08T02:08:10;5.90;59.70
4107;DHT22;21906;50.812;7.132;2024-03-08T02:10:43;5.90;59.90
4107;DHT22;21906;50.812;7.132;2024-03-08T02:13:09;5.90;59.80
4107;DHT22;21906;50.812;7.132;2024-03-08T02:15:55;5.80;60.00
4107;DHT22;21906;50.812;7.132;2024-03-08T02:18:22;5.70;60.10
4107;DHT22;21906;50.812;7.132;2024-03-08T02:20:58;5.60;60.30
4107;DHT22;21906;50.812;7.132;2024-03-08T02:23:24;5.70;60.30
4107;DHT22;21906;50.812;7.132;2024-03-08T02:25:50;5.60;60.40
4107;DHT22;21906;50.812;7.132;2024-03-08T02:28:16;5.60;60.50
4107;DHT22;21906;50.812;7.132;2024-03-08T02:30:48;5.70;60.30
4107;DHT22;21906;50.812;7.132;2024-03-08T02:33:17;5.70;60.20
4107;DHT22;21906;50.812;7.132;2024-03-08T02:35:44;5.80;59.90
4107;DHT22;21906;50.812;7.132;2024-03-08T02:38:19;5.90;59.90
4107;DHT22;21906;50.812;7.132;2024-03-08T02:40:46;5.80;59.60
4107;DHT22;21906;50.812;7.132;2024-03-08T02:43:13;5.70;59.70
4107;DHT22;21906;50.812;7.132;2024-03-08T02:45:40;5.80;59.80
4107;DHT22;21906;50.812;7.132;2024-03-08T02:48:07;5.90;59.60
4107;DHT22;21906;50.812;7.132;2024-03-08T02:50:34;5.90;59.80
4107;DHT22;21906;50.812;7.132;2024-03-08T02:53:03;5.90;59.70
4107;DHT22;21906;50.812;7.132;2024-03-08T02:55:29;5.80;59.80
4107;DHT22;21906;50.812;7.132;2024-03-08T02:57:55;5.90;59.70
4107;DHT22;21906;50.812;7.132;2024-03-08T03:00:22;5.80;59.70
4107;DHT22;21906;50.812;7.132;2024-03-08T03:02:52;5.80;59.90
4107;DHT22;21906;50.812;7.132;2024-03-08T03:05:20;5.70;59.90
4107;DHT22;21906;50.812;7.132;2024-03-08T03:07:46;5.70;59.90
4107;DHT22;21906;50.812;7.132;2024-03-08T03:10:13;5.70;59.80
4107;DHT22;21906;50.812;7.132;2024-03-08T03:12:43;5.80;59.70
4107;DHT22;21906;50.812;7.132;2024-03-08T03:15:10;5.80;59.70
4107;DHT22;21906;50.812;7.132;2024-03-08T03:17:35;5.80;59.50
4107;DHT22;21906;50.812;7.132;2024-03-08T03:20:01;5.90;59.40
4107;DHT22;21906;50.812;7.132;2024-03-08T03:22:34;5.90;59.40
4107;DHT22;21906;50.812;7.132;2024-03-08T03:25:00;5.90;59.30
4107;DHT22;21906;50.812;7.132;2024-03-08T03:27:26;5.90;59.30
4107;DHT22;21906;50.812;7.132;2024-03-08T03:29:51;5.90;59.40
4107;DHT22;21906;50.812;7.132;2024-03-08T03:32:17;5.90;59.60
4107;DHT22;21906;50.812;7.132;2024-03-08T03:34:44;5.80;59.60
4107;DHT22;21906;50.812;7.132;2024-03-08T03:37:10;5.70;60.00
4107;DHT22;21906;50.812;7.132;2024-03-08T03:39:39;5.60;60.30
4107;DHT22;21906;50.812;7.132;2024-03-08T03:42:17;5.50;60.50
4107;DHT22;21906;50.812;7.132;2024-03-08T03:44:47;5.50;60.70
4107;DHT22;21906;50.812;7.132;2024-03-08T03:47:13;5.40;60.90
4107;DHT22;21906;50.812;7.132;2024-03-08T03:49:43;5.40;61.10
4107;DHT22;21906;50.812;7.132;2024-03-08T03:52:09;5.40;61.30
4107;DHT22;21906;50.812;7.132;2024-03-08T03:54:35;5.30;61.30
4107;DHT22;21906;50.812;7.132;2024-03-08T03:57:01;5.20;61.50
4107;DHT22;21906;50.812;7.132;2024-03-08T03:59:28;5.20;61.70
4107;DHT22;21906;50.812;7.132;2024-03-08T04:01:54;5.10;61.80
4107;DHT22;21906;50.812;7.132;2024-03-08T04:04:21;5.00;62.10
4107;DHT22;21906;50.812;7.132;2024-03-08T04:06:47;5.00;62.30
4107;DHT22;21906;50.812;7.132;2024-03-08T04:09:13;4.90;62.40
4107;DHT22;21906;50.812;7.132;2024-03-08T04:11:39;4.90;63.00
4107;DHT22;21906;50.812;7.132;2024-03-08T04:14:05;4.80;63.10
4107;DHT22;21906;50.812;7.132;2024-03-08T04:16:31;4.80;63.20
4107;DHT22;21906;50.812;7.132;2024-03-08T04:18:58;4.80;63.30
4107;DHT22;21906;50.812;7.132;2024-03-08T04:21:23;4.70;63.30
4107;DHT22;21906;50.812;7.132;2024-03-08T04:23:49;4.60;63.80
4107;DHT22;21906;50.812;7.132;2024-03-08T04:26:15;4.50;64.10
4107;DHT22;21906;50.812;7.132;2024-03-08T04:28:41;4.60;63.90
4107;DHT22;21906;50.812;7.132;2024-03-08T04:31:07;4.70;63.90
4107;DHT22;21906;50.812;7.132;2024-03-08T04:33:33;4.60;63.80
4107;DHT22;21906;50.812;7.132;2024-03-08T04:36:01;4.50;64.10
4107;DHT22;21906;50.812;7.132;2024-03-08T04:38:30;4.60;64.00
4107;DHT22;21906;50.812;7.132;2024-03-08T04:40:56;4.60;63.80
4107;DHT22;21906;50.812;7.132;2024-03-08T04:43:23;4.70;63.70
4107;DHT22;21906;50.812;7.132;2024-03-08T04:45:51;4.70;63.60
4107;DHT22;21906;50.812;7.132;2024-03-08T04:48:17;4.70;63.60
4107;DHT22;21906;50.812;7.132;2024-03-08T04:50:42;4.60;63.60
4107;DHT22;21906;50.812;7.132;2024-03-08T04:53:10;4.60;63.80
4107;DHT22;21906;50.812;7.132;2024-03-08T04:55:35;4.60;63.70
4107;DHT22;21906;50.812;7.132;2024-03-08T04:58:03;4.60;63.80
4107;DHT22;21906;50.812;7.132;2024-03-08T05:00:29;4.60;63.80
4107;DHT22;21906;50.812;7.132;2024-03-08T05:02:55;4.60;63.70
4107;DHT22;21906;50.812;7.132;2024-03-08T05:05:21;4.60;63.70
4107;DHT22;21906;50.812;7.132;2024-03-08T05:07:48;4.60;63.80
4107;DHT22;21906;50.812;7.132;2024-03-08T05:10:13;4.50;64.00
4107;DHT22;21906;50.812;7.132;2024-03-08T05:12:43;4.40;64.50
4107;DHT22;21906;50.812;7.132;2024-03-08T05:15:09;4.40;64.80
4107;DHT22;21906;50.812;7.132;2024-03-08T05:17:35;4.30;64.90
4107;DHT22;21906;50.812;7.132;2024-03-08T05:20:00;4.40;64.80
4107;DHT22;21906;50.812;7.132;2024-03-08T05:22:26;4.30;64.70
4107;DHT22;21906;50.812;7.132;2024-03-08T05:24:52;4.10;65.20
4107;DHT22;21906;50.812;7.132;2024-03-08T05:27:17;4.20;65.10
4107;DHT22;21906;50.812;7.132;2024-03-08T05:29:43;4.20;65.20
4107;DHT22;21906;50.812;7.132;2024-03-08T05:32:09;4.20;65.10
4107;DHT22;21906;50.812;7.132;2024-03-08T05:34:35;4.40;65.10
4107;DHT22;21906;50.812;7.132;2024-03-08T05:37:01;4.50;64.60
4107;DHT22;21906;50.812;7.132;2024-03-08T05:39:30;4.50;64.30
4107;DHT22;21906;50.812;7.132;2024-03-08T05:41:56;4.50;64.10
4107;DHT22;21906;50.812;7.132;2024-03-08T05:44:22;4.40;64.20
4107;DHT22;21906;50.812;7.132;2024-03-08T05:46:47;4.50;64.20
4107;DHT22;21906;50.812;7.132;2024-03-08T05:49:13;4.40;64.20
4107;DHT22;21906;50.812;7.132;2024-03-08T05:51:40;4.40;64.30
4107;DHT22;21906;50.812;7.132;2024-03-08T05:54:07;4.40;64.40
4107;DHT22;21906;50.812;7.132;2024-03-08T05:56:38;4.40;64.40
4107;DHT22;21906;50.812;7.132;2024-03-08T05:59:03;4.30;64.70
4107;DHT22;21906;50.812;7.132;2024-03-08T06:01:29;4.20;64.70
4107;DHT22;21906;50.812;7.132;2024-03-08T06:03:57;4.40;64.70
4107;DHT22;21906;50.812;7.132;2024-03-08T06:06:23;4.40;64.50
4107;DHT22;21906;50.812;7.132;2024-03-08T06:08:50;4.40;64.40
4107;DHT22;21906;50.812;7.132;2024-03-08T06:11:16;4.40;64.40
4107;DHT22;21906;50.812;7.132;2024-03-08T06:13:49;4.40;64.40
4107;DHT22;21906;50.812;7.132;2024-03-08T06:16:15;4.40;64.40
4107;DHT22;21906;50.812;7.132;2024-03-08T06:18:41;4.50;64.40
4107;DHT22;21906;50.812;7.132;2024-03-08T06:21:12;4.50;64.30
4107;DHT22;21906;50.812;7.132;2024-03-08T06:23:38;4.40;64.50
4107;DHT22;21906;50.812;7.132;2024-03-08T06:26:04;4.40;64.70
4107;DHT22;21906;50.812;7.132;2024-03-08T06:28:30;4.30;65.00
4107;DHT22;21906;50.812;7.132;2024-03-08T06:31:01;4.20;65.30
4107;DHT22;21906;50.812;7.132;2024-03-08T06:33:27;3.90;66.20
4107;DHT22;21906;50.812;7.132;2024-03-08T06:35:53;3.90;66.50
4107;DHT22;21906;50.812;7.132;2024-03-08T06:38:25;4.00;66.20
4107;DHT22;21906;50.812;7.132;2024-03-08T06:40:54;4.20;66.10
4107;DHT22;21906;50.812;7.132;2024-03-08T06:43:20;4.20;65.90
4107;DHT22;21906;50.812;7.132;2024-03-08T06:45:47;4.30;65.80
4107;DHT22;21906;50.812;7.132;2024-03-08T06:48:18;4.30;65.40
4107;DHT22;21906;50.812;7.132;2024-03-08T06:50:47;4.40;65.70
4107;DHT22;21906;50.812;7.132;2024-03-08T06:53:13;4.50;65.30
4107;DHT22;21906;50.812;7.132;2024-03-08T06:55:40;4.60;65.00
4107;DHT22;21906;50.812;7.132;2024-03-08T06:58:05;4.70;64.80
4107;DHT22;21906;50.812;7.132;2024-03-08T07:00:33;4.70;64.70
4107;DHT22;21906;50.812;7.132;2024-03-08T07:02:59;4.70;64.60
4107;DHT22;21906;50.812;7.132;2024-03-08T07:05:35;4.60;65.40
4107;DHT22;21906;50.812;7.132;2024-03-08T07:08:02;4.50;65.40
4107;DHT22;21906;50.812;7.132;2024-03-08T07:10:28;4.50;65.60
4107;DHT22;21906;50.812;7.132;2024-03-08T07:12:54;4.60;65.50
4107;DHT22;21906;50.812;7.132;2024-03-08T07:15:20;4.50;65.40
4107;DHT22;21906;50.812;7.132;2024-03-08T07:17:47;4.50;65.80
4107;DHT22;21906;50.812;7.132;2024-03-08T07:20:15;4.50;66.10
4107;DHT22;21906;50.812;7.132;2024-03-08T07:22:48;4.60;65.90
4107;DHT22;21906;50.812;7.132;2024-03-08T07:25:15;4.70;65.70
4107;DHT22;21906;50.812;7.132;2024-03-08T07:27:54;4.80;65.40
4107;DHT22;21906;50.812;7.132;2024-03-08T07:30:22;4.80;65.40
4107;DHT22;21906;50.812;7.132;2024-03-08T07:33:07;4.60;65.60
4107;DHT22;21906;50.812;7.132;2024-03-08T07:35:33;4.70;65.60
4107;DHT22;21906;50.812;7.132;2024-03-08T07:38:06;4.70;66.10
4107;DHT22;21906;50.812;7.132;2024-03-08T07:40:37;4.70;66.00
4107;DHT22;21906;50.812;7.132;2024-03-08T07:43:10;4.80;65.70
4107;DHT22;21906;50.812;7.132;2024-03-08T07:45:37;4.90;65.70
4107;DHT22;21906;50.812;7.132;2024-03-08T07:48:03;4.80;66.00
4107;DHT22;21906;50.812;7.132;2024-03-08T07:50:38;4.90;65.80
4107;DHT22;21906;50.812;7.132;2024-03-08T07:53:05;4.90;65.60
4107;DHT22;21906;50.812;7.132;2024-03-08T07:55:37;4.90;66.20
4107;DHT22;21906;50.812;7.132;2024-03-08T07:58:03;5.10;65.50
4107;DHT22;21906;50.812;7.132;2024-03-08T08:00:29;5.20;65.30
4107;DHT22;21906;50.812;7.132;2024-03-08T08:02:57;5.30;65.10
4107;DHT22;21906;50.812;7.132;2024-03-08T08:05:22;5.30;64.90
4107;DHT22;21906;50.812;7.132;2024-03-08T08:07:48;5.50;64.60
4107;DHT22;21906;50.812;7.132;2024-03-08T08:10:15;5.60;64.50
4107;DHT22;21906;50.812;7.132;2024-03-08T08:12:48;5.80;64.00
4107;DHT22;21906;50.812;7.132;2024-03-08T08:15:14;5.90;63.80
4107;DHT22;21906;50.812;7.132;2024-03-08T08:17:43;6.00;63.40
4107;DHT22;21906;50.812;7.132;2024-03-08T08:20:10;6.00;63.60
4107;DHT22;21906;50.812;7.132;2024-03-08T08:22:37;6.20;62.70
4107;DHT22;21906;50.812;7.132;2024-03-08T08:25:04;6.30;62.90
4107;DHT22;21906;50.812;7.132;2024-03-08T08:27:30;6.40;62.50
4107;DHT22;21906;50.812;7.132;2024-03-08T08:29:58;6.40;62.40
4107;DHT22;21906;50.812;7.132;2024-03-08T08:32:24;6.40;62.30
4107;DHT22;21906;50.812;7.132;2024-03-08T08:34:50;6.60;62.00
4107;DHT22;21906;50.812;7.132;2024-03-08T08:37:18;6.70;61.90
4107;DHT22;21906;50.812;7.132;2024-03-08T08:39:44;6.80;61.60
4107;DHT22;21906;50.812;7.132;2024-03-08T08:42:09;6.90;61.50
4107;DHT22;21906;50.812;7.132;2024-03-08T08:44:36;7.00;61.30
4107;DHT22;21906;50.812;7.132;2024-03-08T08:47:02;7.10;61.00
4107;DHT22;21906;50.812;7.132;2024-03-08T08:49:29;7.10;60.80
4107;DHT22;21906;50.812;7.132;2024-03-08T08:51:56;7.30;61.00
4107;DHT22;21906;50.812;7.132;2024-03-08T08:54:24;7.30;61.20
4107;DHT22;21906;50.812;7.132;2024-03-08T08:56:50;7.30;61.00
4107;DHT22;21906;50.812;7.132;2024-03-08T08:59:16;7.30;60.40
4107;DHT22;21906;50.812;7.132;2024-03-08T09:01:45;7.40;60.80
4107;DHT22;21906;50.812;7.132;2024-03-08T09:04:14;7.50;60.70
4107;DHT22;21906;50.812;7.132;2024-03-08T09:06:39;7.60;60.00
4107;DHT22;21906;50.812;7.132;2024-03-08T09:09:09;7.70;59.90
4107;DHT22;21906;50.812;7.132;2024-03-08T09:11:36;7.70;60.00
4107;DHT22;21906;50.812;7.132;2024-03-08T09:14:07;7.70;60.00
4107;DHT22;21906;50.812;7.132;2024-03-08T09:16:33;7.80;60.50
4107;DHT22;21906;50.812;7.132;2024-03-08T09:18:59;7.80;59.80
4107;DHT22;21906;50.812;7.132;2024-03-08T09:21:25;7.90;59.20
4107;DHT22;21906;50.812;7.132;2024-03-08T09:23:53;8.10;59.60
4107;DHT22;21906;50.812;7.132;2024-03-08T09:26:19;8.20;58.70
4107;DHT22;21906;50.812;7.132;2024-03-08T09:28:45;8.40;59.20
4107;DHT22;21906;50.812;7.132;2024-03-08T09:31:11;8.40;58.30
4107;DHT22;21906;50.812;7.132;2024-03-08T09:33:37;8.50;57.00
4107;DHT22;21906;50.812;7.132;2024-03-08T09:36:08;8.60;56.20
4107;DHT22;21906;50.812;7.132;2024-03-08T09:38:34;8.50;55.90
4107;DHT22;21906;50.812;7.132;2024-03-08T09:41:01;8.70;55.90
4107;DHT22;21906;50.812;7.132;2024-03-08T09:43:30;8.70;56.00
4107;DHT22;21906;50.812;7.132;2024-03-08T09:45:57;8.70;55.30
4107;DHT22;21906;50.812;7.132;2024-03-08T09:48:23;8.80;55.40
4107;DHT22;21906;50.812;7.132;2024-03-08T09:50:49;8.90;55.50
4107;DHT22;21906;50.812;7.132;2024-03-08T09:53:15;9.00;56.30
4107;DHT22;21906;50.812;7.132;2024-03-08T09:55:42;9.10;55.40
4107;DHT22;21906;50.812;7.132;2024-03-08T09:58:12;9.20;55.00
4107;DHT22;21906;50.812;7.132;2024-03-08T10:00:53;9.20;55.30
4107;DHT22;21906;50.812;7.132;2024-03-08T10:03:22;9.30;54.50
4107;DHT22;21906;50.812;7.132;2024-03-08T10:05:48;9.40;53.80
4107;DHT22;21906;50.812;7.132;2024-03-08T10:08:14;9.50;52.50
4107;DHT22;21906;50.812;7.132;2024-03-08T10:10:40;9.40;53.30
4107;DHT22;21906;50.812;7.132;2024-03-08T10:13:07;9.50;53.00
4107;DHT22;21906;50.812;7.132;2024-03-08T10:15:33;9.50;53.00
4107;DHT22;21906;50.812;7.132;2024-03-08T10:17:59;9.70;55.10
4107;DHT22;21906;50.812;7.132;2024-03-08T10:20:25;10.00;60.40
4107;DHT22;21906;50.812;7.132;2024-03-08T10:22:52;10.20;54.60
4107;DHT22;21906;50.812;7.132;2024-03-08T10:25:19;10.40;61.20
4107;DHT22;21906;50.812;7.132;2024-03-08T10:27:45;10.50;52.10
4107;DHT22;21906;50.812;7.132;2024-03-08T10:30:14;10.60;56.00
4107;DHT22;21906;50.812;7.132;2024-03-08T10:32:40;10.60;51.60
4107;DHT22;21906;50.812;7.132;2024-03-08T10:35:07;10.70;51.20
4107;DHT22;21906;50.812;7.132;2024-03-08T10:37:46;10.70;53.80
4107;DHT22;21906;50.812;7.132;2024-03-08T10:40:21;10.80;54.70
4107;DHT22;21906;50.812;7.132;2024-03-08T10:42:58;10.90;51.90
4107;DHT22;21906;50.812;7.132;2024-03-08T10:45:37;11.00;52.40
4107;DHT22;21906;50.812;7.132;2024-03-08T10:48:05;11.00;53.30
4107;DHT22;21906;50.812;7.132;2024-03-08T10:50:34;11.10;50.60
4107;DHT22;21906;50.812;7.132;2024-03-08T10:53:01;11.30;54.10
4107;DHT22;21906;50.812;7.132;2024-03-08T10:55:28;11.40;51.10
4107;DHT22;21906;50.812;7.132;2024-03-08T10:57:55;11.40;49.10
4107;DHT22;21906;50.812;7.132;2024-03-08T11:00:21;11.40;47.60
4107;DHT22;21906;50.812;7.132;2024-03-08T11:02:56;11.20;47.00
4107;DHT22;21906;50.812;7.132;2024-03-08T11:05:51;11.10;47.80
4107;DHT22;21906;50.812;7.132;2024-03-08T11:08:18;11.10;48.80
4107;DHT22;21906;50.812;7.132;2024-03-08T11:10:50;11.20;48.80
4107;DHT22;21906;50.812;7.132;2024-03-08T11:13:34;11.30;48.30
4107;DHT22;21906;50.812;7.132;2024-03-08T11:16:01;11.50;48.20
4107;DHT22;21906;50.812;7.132;2024-03-08T11:18:27;11.50;47.80
4107;DHT22;21906;50.812;7.132;2024-03-08T11:20:56;11.40;48.70
4107;DHT22;21906;50.812;7.132;2024-03-08T11:23:23;11.40;48.20
4107;DHT22;21906;50.812;7.132;2024-03-08T11:25:51;11.30;49.30
4107;DHT22;21906;50.812;7.132;2024-03-08T11:28:23;11.40;49.20
4107;DHT22;21906;50.812;7.132;2024-03-08T11:33:30;11.50;47.30
4107;DHT22;21906;50.812;7.132;2024-03-08T11:36:23;11.70;47.60
4107;DHT22;21906;50.812;7.132;2024-03-08T11:38:50;11.70;47.20
4107;DHT22;21906;50.812;7.132;2024-03-08T11:41:24;11.90;47.80
4107;DHT22;21906;50.812;7.132;2024-03-08T11:44:03;12.00;46.70
4107;DHT22;21906;50.812;7.132;2024-03-08T11:46:32;12.20;46.00
4107;DHT22;21906;50.812;7.132;2024-03-08T11:49:00;12.20;46.60
4107;DHT22;21906;50.812;7.132;2024-03-08T11:51:27;12.40;45.70
4107;DHT22;21906;50.812;7.132;2024-03-08T11:53:53;12.40;47.70
4107;DHT22;21906;50.812;7.132;2024-03-08T11:56:19;12.50;45.60
4107;DHT22;21906;50.812;7.132;2024-03-08T11:58:55;12.40;45.00
4107;DHT22;21906;50.812;7.132;2024-03-08T12:01:24;12.50;45.20
4107;DHT22;21906;50.812;7.132;2024-03-08T12:03:54;12.50;45.70
4107;DHT22;21906;50.812;7.132;2024-03-08T12:06:20;12.50;46.20
4107;DHT22;21906;50.812;7.132;2024-03-08T12:08:46;12.50;45.10
4107;DHT22;21906;50.812;7.132;2024-03-08T12:11:14;12.50;46.90
4107;DHT22;21906;50.812;7.132;2024-03-08T12:13:41;12.50;45.30
4107;DHT22;21906;50.812;7.132;2024-03-08T12:16:09;12.60;45.30
4107;DHT22;21906;50.812;7.132;2024-03-08T12:18:36;12.60;44.90
4107;DHT22;21906;50.812;7.132;2024-03-08T12:21:09;12.60;45.70
4107;DHT22;21906;50.812;7.132;2024-03-08T12:23:36;12.80;45.10
4107;DHT22;21906;50.812;7.132;2024-03-08T12:26:16;12.90;43.90
4107;DHT22;21906;50.812;7.132;2024-03-08T12:28:44;13.00;44.10
4107;DHT22;21906;50.812;7.132;2024-03-08T12:31:12;13.00;43.50
4107;DHT22;21906;50.812;7.132;2024-03-08T12:33:50;13.00;44.00
4107;DHT22;21906;50.812;7.132;2024-03-08T12:36:17;12.90;44.10
4107;DHT22;21906;50.812;7.132;2024-03-08T12:38:49;13.10;44.50
4107;DHT22;21906;50.812;7.132;2024-03-08T12:41:16;13.40;43.50
4107;DHT22;21906;50.812;7.132;2024-03-08T12:43:43;13.50;43.40
4107;DHT22;21906;50.812;7.132;2024-03-08T12:46:14;13.80;45.00
4107;DHT22;21906;50.812;7.132;2024-03-08T12:48:40;13.90;43.30
4107;DHT22;21906;50.812;7.132;2024-03-08T12:51:07;13.90;41.60
4107;DHT22;21906;50.812;7.132;2024-03-08T12:53:33;13.70;43.00
4107;DHT22;21906;50.812;7.132;2024-03-08T12:55:59;13.60;42.70
4107;DHT22;21906;50.812;7.132;2024-03-08T12:58:25;13.70;43.90
4107;DHT22;21906;50.812;7.132;2024-03-08T13:00:51;13.90;42.80
4107;DHT22;21906;50.812;7.132;2024-03-08T13:03:17;13.90;42.60
4107;DHT22;21906;50.812;7.132;2024-03-08T13:05:43;14.20;43.00
4107;DHT22;21906;50.812;7.132;2024-03-08T13:08:10;14.40;41.30
4107;DHT22;21906;50.812;7.132;2024-03-08T13:10:41;14.60;40.70
4107;DHT22;21906;50.812;7.132;2024-03-08T13:13:11;14.70;41.60
4107;DHT22;21906;50.812;7.132;2024-03-08T13:15:40;15.00;40.80
4107;DHT22;21906;50.812;7.132;2024-03-08T13:18:06;14.90;39.30
4107;DHT22;21906;50.812;7.132;2024-03-08T13:20:34;15.10;38.80
4107;DHT22;21906;50.812;7.132;2024-03-08T13:23:03;15.30;39.00
4107;DHT22;21906;50.812;7.132;2024-03-08T13:25:31;15.40;39.40
4107;DHT22;21906;50.812;7.132;2024-03-08T13:27:57;15.50;38.50
4107;DHT22;21906;50.812;7.132;2024-03-08T13:30:24;15.60;38.70
4107;DHT22;21906;50.812;7.132;2024-03-08T13:32:52;15.60;38.70
4107;DHT22;21906;50.812;7.132;2024-03-08T13:35:19;15.50;38.90
4107;DHT22;21906;50.812;7.132;2024-03-08T13:37:51;15.70;38.00
4107;DHT22;21906;50.812;7.132;2024-03-08T13:40:17;16.00;36.60
4107;DHT22;21906;50.812;7.132;2024-03-08T13:42:48;16.10;37.20
4107;DHT22;21906;50.812;7.132;2024-03-08T13:45:15;16.20;37.80
4107;DHT22;21906;50.812;7.132;2024-03-08T13:47:53;16.20;37.40
4107;DHT22;21906;50.812;7.132;2024-03-08T13:50:19;16.40;37.20
4107;DHT22;21906;50.812;7.132;2024-03-08T13:52:50;16.20;37.80
4107;DHT22;21906;50.812;7.132;2024-03-08T13:55:17;16.00;37.40
4107;DHT22;21906;50.812;7.132;2024-03-08T13:57:43;15.90;37.80
4107;DHT22;21906;50.812;7.132;2024-03-08T14:00:12;15.90;38.60
4107;DHT22;21906;50.812;7.132;2024-03-08T14:02:38;15.90;37.60
4107;DHT22;21906;50.812;7.132;2024-03-08T14:05:07;16.10;37.60
4107;DHT22;21906;50.812;7.132;2024-03-08T14:07:37;16.30;37.30
4107;DHT22;21906;50.812;7.132;2024-03-08T14:10:04;16.40;37.30
4107;DHT22;21906;50.812;7.132;2024-03-08T14:12:32;16.50;36.60
4107;DHT22;21906;50.812;7.132;2024-03-08T14:14:58;16.80;36.60
4107;DHT22;21906;50.812;7.132;2024-03-08T14:17:26;16.90;35.50
4107;DHT22;21906;50.812;7.132;2024-03-08T14:19:53;17.00;35.70
4107;DHT22;21906;50.812;7.132;2024-03-08T14:22:20;17.20;34.70
4107;DHT22;21906;50.812;7.132;2024-03-08T14:24:46;17.30;35.00
4107;DHT22;21906;50.812;7.132;2024-03-08T14:27:11;17.30;35.00
4107;DHT22;21906;50.812;7.132;2024-03-08T14:29:38;17.30;35.00
4107;DHT22;21906;50.812;7.132;2024-03-08T14:32:07;17.60;34.70
4107;DHT22;21906;50.812;7.132;2024-03-08T14:34:34;17.60;34.70
4107;DHT22;21906;50.812;7.132;2024-03-08T14:37:00;17.50;34.70
4107;DHT22;21906;50.812;7.132;2024-03-08T14:39:26;17.40;34.30
4107;DHT22;21906;50.812;7.132;2024-03-08T14:41:55;17.30;34.10
4107;DHT22;21906;50.812;7.132;2024-03-08T14:44:24;17.50;34.30
4107;DHT22;21906;50.812;7.132;2024-03-08T14:46:52;17.60;34.40
4107;DHT22;21906;50.812;7.132;2024-03-08T14:49:18;17.30;34.90
4107;DHT22;21906;50.812;7.132;2024-03-08T14:51:44;16.90;35.00
4107;DHT22;21906;50.812;7.132;2024-03-08T14:54:10;17.10;35.60
4107;DHT22;21906;50.812;7.132;2024-03-08T14:56:40;17.40;34.60
4107;DHT22;21906;50.812;7.132;2024-03-08T14:59:08;17.60;34.00
4107;DHT22;21906;50.812;7.132;2024-03-08T15:01:35;17.20;35.50
4107;DHT22;21906;50.812;7.132;2024-03-08T15:04:02;17.20;34.40
4107;DHT22;21906;50.812;7.132;2024-03-08T15:06:38;17.40;34.90
4107;DHT22;21906;50.812;7.132;2024-03-08T15:09:07;17.90;34.00
4107;DHT22;21906;50.812;7.132;2024-03-08T15:11:38;17.70;33.80
4107;DHT22;21906;50.812;7.132;2024-03-08T15:14:05;17.70;34.30
4107;DHT22;21906;50.812;7.132;2024-03-08T15:16:39;17.90;33.50
4107;DHT22;21906;50.812;7.132;2024-03-08T15:19:08;18.30;32.70
4107;DHT22;21906;50.812;7.132;2024-03-08T15:21:35;18.60;33.10
4107;DHT22;21906;50.812;7.132;2024-03-08T15:24:01;18.90;32.70
4107;DHT22;21906;50.812;7.132;2024-03-08T15:26:29;18.60;32.70
4107;DHT22;21906;50.812;7.132;2024-03-08T15:28:56;18.60;32.80
4107;DHT22;21906;50.812;7.132;2024-03-08T15:31:22;19.00;32.40
4107;DHT22;21906;50.812;7.132;2024-03-08T15:33:50;18.70;32.70
4107;DHT22;21906;50.812;7.132;2024-03-08T15:36:32;18.90;33.20
4107;DHT22;21906;50.812;7.132;2024-03-08T15:38:59;18.50;32.00
4107;DHT22;21906;50.812;7.132;2024-03-08T15:41:26;18.50;32.90
4107;DHT22;21906;50.812;7.132;2024-03-08T15:43:55;18.40;32.60
4107;DHT22;21906;50.812;7.132;2024-03-08T15:46:21;17.90;33.00
4107;DHT22;21906;50.812;7.132;2024-03-08T15:48:50;17.80;33.20
4107;DHT22;21906;50.812;7.132;2024-03-08T15:51:17;17.10;34.40
4107;DHT22;21906;50.812;7.132;2024-03-08T15:53:45;17.40;34.70
4107;DHT22;21906;50.812;7.132;2024-03-08T15:56:18;17.10;35.10
4107;DHT22;21906;50.812;7.132;2024-03-08T15:58:45;16.90;34.70
4107;DHT22;21906;50.812;7.132;2024-03-08T16:01:11;16.90;35.70
4107;DHT22;21906;50.812;7.132;2024-03-08T16:03:41;17.10;34.60